Time;durP1;ratioP1;P1;durP2;ratioP2;P2;SDS_P1;SDS_P2;PMS_P1;PMS_P2;Temp;Humidity;BMP_temperature;BMP_pressure;BME280_temperature;BME280_humidity;BME280_pressure;Samples;Min_cycle;Max_cycle;Signal;HPM_P1;HPM_P2
2022/02/25 00:01:16;;;;;;;19.98;13.60;;;18.90;92.70;;;;;;4171835;28;20033;-64
2022/02/25 00:03:26;;;;;;;18.25;13.07;;;18.90;92.90;;;;;;4166532;28;20042;-64
2022/02/25 00:05:34;;;;;;;17.83;13.40;;;18.80;93.00;;;;;;4170868;28;20495;-65
2022/02/25 00:07:43;;;;;;;22.30;15.38;;;18.80;93.20;;;;;;4165139;28;20046;-62
2022/02/25 00:09:48;;;;;;;25.00;16.73;;;18.80;93.40;;;;;;4165434;28;20500;-63
2022/02/25 00:11:54;;;;;;;26.90;16.98;;;18.80;93.40;;;;;;4163787;28;20543;-63
2022/02/25 00:14:01;;;;;;;24.42;15.73;;;18.70;93.70;;;;;;4166630;28;20042;-65
2022/02/25 00:16:12;;;;;;;23.92;16.83;;;18.70;93.60;;;;;;4165262;28;20087;-64
2022/02/25 00:18:26;;;;;;;27.67;17.70;;;18.80;93.60;;;;;;4151320;28;20519;-62
2022/02/25 00:20:30;;;;;;;35.17;19.33;;;18.60;94.00;;;;;;4164249;28;20159;-63
2022/02/25 00:22:35;;;;;;;35.42;20.13;;;18.70;93.80;;;;;;4161461;28;20108;-64
2022/02/25 00:24:42;;;;;;;33.85;20.17;;;18.80;93.70;;;;;;4167915;28;20095;-64
2022/02/25 00:26:51;;;;;;;31.10;17.60;;;18.90;93.50;;;;;;4166552;28;20052;-64
2022/02/25 00:28:57;;;;;;;22.75;14.73;;;19.00;93.40;;;;;;4166751;28;21198;-64
2022/02/25 00:31:03;;;;;;;22.70;15.50;;;19.10;93.00;;;;;;4166866;28;20044;-64
2022/02/25 00:33:17;;;;;;;18.60;12.55;;;19.00;93.00;;;;;;4164628;28;20061;-64
2022/02/25 00:35:27;;;;;;;;;;;18.80;92.50;;;;;;4165908;28;20045;-64
2022/02/25 00:37:32;;;;;;;18.95;13.07;;;18.80;92.80;;;;;;4165706;28;19920;-62
2022/02/25 00:39:38;;;;;;;24.65;13.98;;;18.90;92.80;;;;;;4169950;28;20407;-62
2022/02/25 00:41:43;;;;;;;18.08;13.25;;;18.90;92.70;;;;;;4162555;28;20069;-64
2022/02/25 00:43:50;;;;;;;19.67;12.88;;;19.10;92.50;;;;;;4166628;28;20049;-63
2022/02/25 00:45:59;;;;;;;20.35;14.32;;;18.90;92.30;;;;;;4165319;28;20107;-64
2022/02/25 00:48:05;;;;;;;23.23;15.02;;;19.00;92.90;;;;;;4167228;28;20087;-63
2022/02/25 00:50:12;;;;;;;22.25;16.23;;;18.90;93.20;;;;;;4168233;28;20033;-63
2022/02/25 00:52:23;;;;;;;30.52;15.90;;;18.90;93.50;;;;;;4164538;28;20225;-63
2022/02/25 00:54:35;;;;;;;27.83;16.60;;;18.90;93.70;;;;;;4166360;28;20409;-63
2022/02/25 00:56:42;;;;;;;25.55;14.45;;;19.00;93.40;;;;;;4166167;28;20041;-63
2022/02/25 00:58:49;;;;;;;23.95;13.73;;;19.10;92.40;;;;;;4169199;28;20445;-63
2022/02/25 01:00:55;;;;;;;21.75;12.35;;;18.90;92.80;;;;;;4165703;28;20127;-62
2022/02/25 01:03:03;;;;;;;16.25;11.63;;;19.00;92.70;;;;;;4169943;28;20041;-62
2022/02/25 01:05:11;;;;;;;22.35;12.60;;;18.90;92.60;;;;;;4168026;28;20073;-62
2022/02/25 01:07:16;;;;;;;17.73;11.40;;;19.10;92.30;;;;;;4163813;28;20084;-62
2022/02/25 01:09:21;;;;;;;17.27;11.82;;;19.10;91.90;;;;;;4168838;28;20535;-61
2022/02/25 01:11:32;;;;;;;15.50;11.38;;;19.10;92.20;;;;;;4163441;28;20061;-63
2022/02/25 01:13:37;;;;;;;15.02;11.13;;;19.10;92.10;;;;;;4168158;28;20096;-63
2022/02/25 01:15:45;;;;;;;14.48;10.80;;;19.20;92.00;;;;;;4163237;28;20045;-63
2022/02/25 01:18:02;;;;;;;15.23;11.27;;;19.40;91.80;;;;;;4146961;28;20042;-62
2022/02/25 01:20:08;;;;;;;15.63;11.60;;;19.30;91.80;;;;;;4163632;28;20531;-62
2022/02/25 01:22:18;;;;;;;16.20;12.13;;;19.20;91.60;;;;;;4164774;28;20033;-63
2022/02/25 01:24:25;;;;;;;18.20;11.65;;;19.30;91.80;;;;;;4163719;28;20033;-63
2022/02/25 01:26:31;;;;;;;14.25;11.25;;;19.20;91.80;;;;;;4166559;28;20551;-63
2022/02/25 01:28:40;;;;;;;14.70;11.23;;;19.30;91.60;;;;;;4163922;28;20560;-62
2022/02/25 01:30:47;;;;;;;14.93;11.60;;;19.50;91.20;;;;;;4165349;28;20576;-62
2022/02/25 01:32:51;;;;;;;17.65;12.15;;;19.50;91.50;;;;;;4164499;28;20076;-62
2022/02/25 01:35:03;;;;;;;15.50;11.82;;;19.50;91.80;;;;;;4164944;28;20128;-62
2022/02/25 01:37:10;;;;;;;16.45;12.15;;;19.30;91.60;;;;;;4165040;28;20084;-61
2022/02/25 01:39:14;;;;;;;16.48;11.73;;;19.40;91.80;;;;;;4164997;28;20042;-62
2022/02/25 01:41:21;;;;;;;15.73;11.05;;;19.50;91.80;;;;;;4164329;28;20064;-62
2022/02/25 01:43:28;;;;;;;16.60;11.63;;;19.40;91.60;;;;;;4161927;28;20065;-59
2022/02/25 01:45:37;;;;;;;16.20;10.77;;;19.60;91.30;;;;;;4165098;28;20045;-62
2022/02/25 01:47:43;;;;;;;16.70;10.88;;;19.70;91.20;;;;;;4164945;28;20430;-62
2022/02/25 01:49:53;;;;;;;14.43;10.20;;;19.70;91.10;;;;;;4163886;28;20041;-61
2022/02/25 01:52:01;;;;;;;13.02;10.00;;;19.70;91.10;;;;;;4165586;28;20045;-62
2022/02/25 01:54:08;;;;;;;21.15;10.35;;;19.70;90.80;;;;;;4164404;28;20054;-62
2022/02/25 01:56:19;;;;;;;13.82;9.82;;;19.80;90.90;;;;;;4165189;28;20037;-62
2022/02/25 01:58:26;;;;;;;14.63;10.02;;;19.90;90.60;;;;;;4163474;28;20037;-62
2022/02/25 02:00:30;;;;;;;12.88;9.82;;;19.90;90.70;;;;;;4165586;28;20434;-63
2022/02/25 02:02:36;;;;;;;12.48;9.50;;;19.80;90.60;;;;;;4168342;28;20099;-62
2022/02/25 02:04:41;;;;;;;14.05;9.80;;;19.80;90.80;;;;;;4158843;28;20103;-63
2022/02/25 02:06:48;;;;;;;13.13;9.70;;;19.70;91.00;;;;;;4197223;28;20055;-62
2022/02/25 02:08:55;;;;;;;14.93;9.85;;;19.90;90.80;;;;;;4165516;28;20642;-62
2022/02/25 02:10:59;;;;;;;15.00;10.43;;;19.90;90.50;;;;;;4165919;28;20053;-63
2022/02/25 02:13:07;;;;;;;13.32;9.63;;;20.00;90.70;;;;;;4165152;28;20068;-62
2022/02/25 02:15:13;;;;;;;14.23;9.02;;;20.20;90.30;;;;;;4162623;28;20075;-61
2022/02/25 02:17:18;;;;;;;13.10;9.80;;;20.40;89.90;;;;;;4161158;28;20073;-62
2022/02/25 02:19:25;;;;;;;14.38;9.25;;;20.40;89.40;;;;;;4163349;28;20033;-63
2022/02/25 02:21:32;;;;;;;11.98;9.32;;;20.30;89.10;;;;;;4161733;28;20056;-62
2022/02/25 02:23:37;;;;;;;12.18;9.40;;;20.40;88.70;;;;;;4167566;28;20045;-63
2022/02/25 02:25:43;;;;;;;13.25;9.25;;;20.50;89.20;;;;;;4165037;28;20041;-61
2022/02/25 02:30:09;;;;;;;12.85;9.70;;;20.50;89.40;;;;;;4163460;28;20049;-62
2022/02/25 02:32:16;;;;;;;11.50;8.68;;;20.50;89.10;;;;;;4161965;28;20132;-62
2022/02/25 02:34:22;;;;;;;14.95;10.30;;;20.50;90.10;;;;;;4164137;28;20041;-61
2022/02/25 02:36:26;;;;;;;12.45;9.40;;;20.50;89.30;;;;;;4164944;28;20049;-63
2022/02/25 02:38:33;;;;;;;12.82;9.32;;;20.60;88.90;;;;;;4163232;28;20046;-62
2022/02/25 02:40:41;;;;;;;13.02;9.27;;;20.70;88.70;;;;;;4163398;28;20057;-62
2022/02/25 02:42:48;;;;;;;11.45;8.95;;;20.80;88.10;;;;;;4163096;28;20124;-61
2022/02/25 02:44:55;;;;;;;11.20;8.77;;;20.90;88.20;;;;;;4164047;28;20064;-63
2022/02/25 02:47:03;;;;;;;12.07;8.60;;;20.90;87.70;;;;;;4162712;28;20076;-62
2022/02/25 02:49:07;;;;;;;12.30;9.27;;;21.10;87.30;;;;;;4152560;28;20162;-62
2022/02/25 02:51:15;;;;;;;16.67;9.68;;;21.10;86.20;;;;;;4164695;28;20053;-62
2022/02/25 02:53:22;;;;;;;12.75;9.63;;;21.10;86.60;;;;;;4162452;28;20128;-62
2022/02/25 02:55:26;;;;;;;17.70;9.43;;;21.10;86.40;;;;;;4162182;28;20053;-63
2022/02/25 02:57:33;;;;;;;20.90;9.63;;;21.20;86.30;;;;;;4164090;28;20060;-63
2022/02/25 02:59:42;;;;;;;20.50;9.52;;;21.30;86.20;;;;;;4160620;28;20132;-62
2022/02/25 03:01:46;;;;;;;13.63;8.90;;;21.40;86.50;;;;;;4163381;28;20097;-62
2022/02/25 03:03:53;;;;;;;13.38;9.05;;;21.40;86.30;;;;;;4163172;28;20050;-64
2022/02/25 03:06:00;;;;;;;21.52;9.32;;;21.50;85.70;;;;;;4161073;28;20083;-63
2022/02/25 03:08:05;;;;;;;13.00;8.88;;;21.50;85.00;;;;;;4163541;28;20053;-64
2022/02/25 03:10:13;;;;;;;13.43;8.45;;;21.60;85.10;;;;;;4166685;28;20116;-62
2022/02/25 03:12:20;;;;;;;13.90;8.55;;;21.70;85.30;;;;;;4162298;28;20107;-63
2022/02/25 03:14:26;;;;;;;14.55;8.98;;;21.70;85.10;;;;;;4162743;28;20041;-63
2022/02/25 03:16:32;;;;;;;11.70;8.60;;;21.70;84.90;;;;;;4163548;28;20047;-63
2022/02/25 03:18:39;;;;;;;14.40;9.00;;;21.40;85.50;;;;;;4165617;28;20115;-61
2022/02/25 03:20:44;;;;;;;13.50;9.10;;;21.40;85.70;;;;;;4170486;28;20038;-65
2022/02/25 03:22:55;;;;;;;13.05;9.30;;;21.30;86.60;;;;;;4170076;28;20051;-63
2022/02/25 03:25:02;;;;;;;10.38;8.25;;;21.40;86.70;;;;;;4170824;28;20511;-63
2022/02/25 03:27:07;;;;;;;13.52;8.73;;;21.50;86.60;;;;;;4165557;28;20046;-63
2022/02/25 03:29:13;;;;;;;12.60;8.35;;;21.60;87.20;;;;;;4166252;28;20037;-63
2022/02/25 03:31:22;;;;;;;12.25;8.40;;;21.50;87.30;;;;;;4165606;28;20557;-64
2022/02/25 03:33:26;;;;;;;10.73;7.93;;;21.60;87.20;;;;;;4165148;28;20076;-63
2022/02/25 03:35:35;;;;;;;13.98;8.10;;;21.70;86.50;;;;;;4168353;28;20153;-63
2022/02/25 03:37:43;;;;;;;13.38;8.60;;;21.70;86.60;;;;;;4198393;28;20051;-63
2022/02/25 03:39:48;;;;;;;11.40;8.10;;;21.80;86.50;;;;;;4167009;28;20045;-62
2022/02/25 03:41:55;;;;;;;13.35;8.63;;;21.80;85.70;;;;;;4163296;28;20140;-63
2022/02/25 03:44:03;;;;;;;12.05;8.90;;;21.90;86.30;;;;;;4167850;28;20097;-63
2022/02/25 03:46:07;;;;;;;12.40;8.63;;;21.80;86.30;;;;;;4167639;28;20164;-65
2022/02/25 03:48:14;;;;;;;11.75;8.77;;;21.80;86.50;;;;;;4164116;28;20711;-64
2022/02/25 03:50:24;;;;;;;12.48;8.65;;;21.90;86.30;;;;;;4167432;28;20107;-64
2022/02/25 03:52:29;;;;;;;11.40;8.43;;;21.70;86.80;;;;;;4167064;28;20072;-62
2022/02/25 03:54:35;;;;;;;14.10;8.77;;;21.80;86.60;;;;;;4168871;28;20099;-63
2022/02/25 03:56:42;;;;;;;10.07;8.10;;;21.80;86.40;;;;;;4164747;28;20044;-64
2022/02/25 03:58:47;;;;;;;13.57;9.18;;;21.80;86.80;;;;;;4163994;28;20097;-61
2022/02/25 04:00:53;;;;;;;12.15;8.52;;;21.70;86.30;;;;;;4164897;28;20500;-63
2022/02/25 04:03:00;;;;;;;16.52;8.68;;;21.90;86.40;;;;;;4168240;28;20145;-64
2022/02/25 04:05:06;;;;;;;12.00;8.77;;;21.90;86.30;;;;;;4167514;28;20041;-65
2022/02/25 04:07:13;;;;;;;13.10;8.98;;;22.10;84.80;;;;;;4167562;28;20041;-65
2022/02/25 04:09:20;;;;;;;11.38;7.80;;;22.30;85.80;;;;;;4164740;28;20498;-63
2022/02/25 04:11:25;;;;;;;12.13;8.90;;;22.40;85.10;;;;;;4164366;28;20053;-64
2022/02/25 04:13:30;;;;;;;17.67;8.52;;;22.40;85.00;;;;;;4166455;28;20045;-65
2022/02/25 04:15:37;;;;;;;11.20;8.50;;;22.50;84.90;;;;;;4167867;28;20048;-64
2022/02/25 04:17:41;;;;;;;11.55;8.35;;;22.30;84.40;;;;;;4165307;28;20049;-63
2022/02/25 04:19:50;;;;;;;12.23;8.30;;;22.40;84.80;;;;;;4165525;28;20567;-63
2022/02/25 04:21:57;;;;;;;11.98;8.52;;;22.40;83.70;;;;;;4162444;28;20037;-63
2022/02/25 04:24:01;;;;;;;12.02;8.15;;;22.40;84.20;;;;;;4166420;28;20053;-62
2022/02/25 04:26:08;;;;;;;8.82;7.50;;;22.60;84.00;;;;;;4169505;28;20072;-64
2022/02/25 04:28:15;;;;;;;13.90;9.40;;;22.60;83.70;;;;;;4162643;28;20180;-62
2022/02/25 04:30:19;;;;;;;11.27;8.50;;;22.70;83.30;;;;;;4163214;28;20538;-64
2022/02/25 04:32:28;;;;;;;12.05;8.38;;;22.60;82.30;;;;;;4166528;28;20038;-64
2022/02/25 04:34:35;;;;;;;14.85;8.65;;;22.70;82.60;;;;;;4165066;28;20050;-64
2022/02/25 04:36:40;;;;;;;12.80;8.90;;;22.80;82.70;;;;;;4163569;28;20814;-65
2022/02/25 04:38:47;;;;;;;16.48;8.55;;;22.90;82.80;;;;;;4162082;28;20051;-64
2022/02/25 04:41:00;;;;;;;13.52;9.00;;;23.00;82.70;;;;;;4162301;28;20045;-64
2022/02/25 04:43:06;;;;;;;12.10;9.25;;;23.10;82.00;;;;;;4161806;28;20643;-64
2022/02/25 04:45:14;;;;;;;11.80;8.93;;;22.90;81.40;;;;;;4160882;28;20889;-65
2022/02/25 04:47:20;;;;;;;12.13;8.55;;;22.90;81.80;;;;;;4166051;28;20480;-64
2022/02/25 04:49:25;;;;;;;13.07;8.90;;;23.00;81.80;;;;;;4165539;28;20132;-63
2022/02/25 04:51:31;;;;;;;12.70;9.15;;;23.10;81.70;;;;;;4167420;28;20045;-63
2022/02/25 04:53:38;;;;;;;11.68;9.50;;;23.20;81.20;;;;;;4163632;28;20137;-65
2022/02/25 04:55:46;;;;;;;11.90;9.20;;;23.30;80.60;;;;;;4176624;28;20049;-63
2022/02/25 04:57:52;;;;;;;14.70;9.68;;;23.20;79.50;;;;;;4169781;28;20053;-63
2022/02/25 04:59:59;;;;;;;13.40;9.75;;;23.20;81.30;;;;;;4166649;28;20778;-64
2022/02/25 05:02:04;;;;;;;13.88;9.57;;;23.40;80.80;;;;;;4166001;28;20368;-61
2022/02/25 05:04:11;;;;;;;12.18;9.05;;;23.50;79.70;;;;;;4163058;28;20095;-63
2022/02/25 05:06:19;;;;;;;12.95;10.00;;;23.50;79.60;;;;;;4161855;28;20533;-64
2022/02/25 05:08:25;;;;;;;14.15;9.95;;;23.40;79.80;;;;;;4164793;28;20057;-63
2022/02/25 05:10:32;;;;;;;13.00;9.45;;;23.40;79.90;;;;;;4163064;28;20052;-63
2022/02/25 05:12:39;;;;;;;16.15;10.30;;;23.40;80.00;;;;;;4161586;28;20056;-64
2022/02/25 05:21:38;;;;;;;10.60;7.97;;;23.80;79.10;;;;;;4161021;28;20180;-64
2022/02/25 05:23:44;;;;;;;10.00;8.48;;;23.60;78.10;;;;;;4161080;28;20114;-64
2022/02/25 05:25:52;;;;;;;10.90;8.73;;;23.70;78.30;;;;;;4163652;28;20041;-64
2022/02/25 05:27:56;;;;;;;12.50;8.20;;;23.70;78.90;;;;;;4158551;28;20094;-65
2022/02/25 05:30:03;;;;;;;11.27;8.68;;;23.70;78.20;;;;;;4167335;28;20050;-64
2022/02/25 05:32:11;;;;;;;12.55;8.45;;;23.70;78.80;;;;;;4163597;28;20524;-65
2022/02/25 05:34:17;;;;;;;11.75;8.57;;;23.80;78.50;;;;;;4164765;28;20045;-66
2022/02/25 05:36:26;;;;;;;11.05;8.57;;;24.00;78.10;;;;;;4159789;28;20045;-63
2022/02/25 05:38:33;;;;;;;17.08;8.13;;;24.00;77.60;;;;;;4164944;28;20096;-64
2022/02/25 05:40:38;;;;;;;11.35;8.65;;;24.10;77.60;;;;;;4173782;28;20052;-64
2022/02/25 05:42:45;;;;;;;11.90;8.95;;;24.10;77.80;;;;;;4170567;28;20061;-63
2022/02/25 05:44:52;;;;;;;12.05;9.07;;;24.20;76.90;;;;;;4169042;28;20104;-65
2022/02/25 05:46:56;;;;;;;12.98;9.13;;;24.10;77.00;;;;;;4159679;28;20156;-63
2022/02/25 05:49:03;;;;;;;15.23;9.57;;;24.00;77.50;;;;;;4160559;28;20049;-63
2022/02/25 05:51:09;;;;;;;13.10;8.98;;;24.00;76.90;;;;;;4155961;28;20056;-62
2022/02/25 05:53:14;;;;;;;13.82;8.98;;;24.10;77.70;;;;;;4168652;28;20484;-63
2022/02/25 05:55:27;;;;;;;11.48;8.15;;;24.20;76.60;;;;;;4160944;28;20051;-63
2022/02/25 05:57:34;;;;;;;12.43;8.73;;;24.20;77.20;;;;;;4162012;28;20045;-63
2022/02/25 05:59:44;;;;;;;13.32;9.05;;;24.20;77.40;;;;;;4161469;28;20098;-63
2022/02/25 06:01:51;;;;;;;13.23;9.05;;;24.40;77.40;;;;;;4159534;28;20048;-64
2022/02/25 06:03:58;;;;;;;11.15;8.90;;;24.40;76.10;;;;;;4160630;28;20088;-63
2022/02/25 06:06:03;;;;;;;12.30;9.23;;;24.40;76.00;;;;;;4158194;28;20069;-63
2022/02/25 06:08:11;;;;;;;12.63;8.40;;;24.40;75.80;;;;;;4160413;28;20136;-63
2022/02/25 06:10:17;;;;;;;12.20;8.95;;;24.50;76.80;;;;;;4162549;28;20110;-63
2022/02/25 06:12:21;;;;;;;11.68;8.95;;;24.60;76.30;;;;;;4158173;28;20563;-63
2022/02/25 06:14:28;;;;;;;12.80;9.30;;;24.50;74.70;;;;;;4158032;28;20128;-63
2022/02/25 06:16:36;;;;;;;13.75;9.73;;;24.60;76.30;;;;;;4158800;28;20128;-63
2022/02/25 06:18:42;;;;;;;12.38;8.38;;;24.60;75.40;;;;;;4161253;28;20179;-63
2022/02/25 06:20:48;;;;;;;11.60;8.65;;;24.70;74.60;;;;;;4159795;28;20052;-64
2022/02/25 06:23:05;;;;;;;10.68;8.68;;;24.60;75.60;;;;;;4158611;28;20049;-63
2022/02/25 06:25:10;;;;;;;11.10;8.77;;;24.60;74.30;;;;;;4157944;28;20107;-64
2022/02/25 06:27:17;;;;;;;12.05;8.48;;;24.60;75.00;;;;;;4158488;28;20136;-64
2022/02/25 06:29:25;;;;;;;11.38;9.13;;;24.80;74.60;;;;;;4161515;28;20052;-63
2022/02/25 06:31:31;;;;;;;15.25;8.85;;;24.80;75.00;;;;;;4159982;28;20045;-63
2022/02/25 06:33:38;;;;;;;10.68;8.45;;;24.90;75.00;;;;;;4161004;28;20068;-63
2022/02/25 06:35:46;;;;;;;11.90;9.00;;;24.90;74.90;;;;;;4158977;28;20053;-63
2022/02/25 06:37:51;;;;;;;13.63;8.77;;;24.90;75.00;;;;;;4159168;28;20037;-63
2022/02/25 06:39:58;;;;;;;15.43;9.27;;;25.00;75.10;;;;;;4160143;28;20046;-63
2022/02/25 06:42:06;;;;;;;12.20;8.80;;;25.00;74.70;;;;;;4163612;28;20045;-63
2022/02/25 06:44:11;;;;;;;9.73;8.02;;;25.00;74.60;;;;;;4160394;28;20053;-63
2022/02/25 06:46:18;;;;;;;12.98;8.63;;;25.00;74.60;;;;;;4158785;28;20053;-63
2022/02/25 06:48:25;;;;;;;12.40;8.50;;;25.10;73.90;;;;;;4161061;28;20045;-63
2022/02/25 06:50:29;;;;;;;13.05;8.55;;;25.10;73.50;;;;;;4168583;28;20116;-63
2022/02/25 06:52:36;;;;;;;10.10;8.00;;;25.00;73.90;;;;;;4159942;28;20119;-63
2022/02/25 06:54:43;;;;;;;11.82;7.78;;;25.20;73.80;;;;;;4163566;28;20523;-63
2022/02/25 06:56:48;;;;;;;10.45;8.18;;;25.20;73.70;;;;;;4163031;28;20659;-63
2022/02/25 06:58:54;;;;;;;12.43;8.35;;;25.30;75.00;;;;;;4164045;28;20065;-63
2022/02/25 07:01:05;;;;;;;12.23;8.93;;;25.20;73.70;;;;;;4162728;28;20042;-63
2022/02/25 07:03:10;;;;;;;11.10;8.07;;;25.30;73.30;;;;;;4162937;28;20175;-62
2022/02/25 07:05:17;;;;;;;11.70;8.80;;;25.30;73.30;;;;;;4160887;28;20041;-63
2022/02/25 07:07:26;;;;;;;11.80;8.25;;;25.30;72.90;;;;;;4162296;28;20460;-63
2022/02/25 07:09:31;;;;;;;12.25;8.85;;;25.40;73.30;;;;;;4163724;28;21549;-64
2022/02/25 07:11:37;;;;;;;11.00;7.97;;;25.40;72.50;;;;;;4161233;28;20119;-62
2022/02/25 07:13:44;;;;;;;11.55;8.07;;;25.50;72.70;;;;;;4161173;28;20050;-62
2022/02/25 07:15:53;;;;;;;12.35;8.52;;;25.60;73.00;;;;;;4164100;28;20080;-63
2022/02/25 07:17:58;;;;;;;9.98;7.72;;;25.50;72.10;;;;;;4163921;28;20053;-63
2022/02/25 07:20:07;;;;;;;10.23;8.50;;;25.50;72.20;;;;;;4163415;28;20037;-62
2022/02/25 07:22:21;;;;;;;14.48;8.88;;;25.60;72.60;;;;;;4158839;28;20045;-62
2022/02/25 07:24:29;;;;;;;11.23;8.57;;;25.60;72.00;;;;;;4162323;28;20044;-63
2022/02/25 07:26:35;;;;;;;17.70;8.63;;;25.60;72.30;;;;;;4162147;28;20049;-63
2022/02/25 07:28:40;;;;;;;12.95;8.50;;;25.60;72.00;;;;;;4163056;28;20069;-62
2022/02/25 07:30:47;;;;;;;10.45;7.65;;;25.70;72.40;;;;;;4160754;28;20049;-62
2022/02/25 07:32:56;;;;;;;9.98;8.13;;;25.60;71.30;;;;;;4162242;28;20037;-62
2022/02/25 07:35:02;;;;;;;11.65;8.40;;;25.60;71.10;;;;;;4163079;28;20081;-63
2022/02/25 07:37:10;;;;;;;12.88;8.40;;;25.60;71.40;;;;;;4161432;28;20141;-62
2022/02/25 07:39:18;;;;;;;9.88;7.68;;;25.70;71.50;;;;;;4162074;28;20052;-62
2022/02/25 07:41:22;;;;;;;10.82;7.70;;;25.70;70.70;;;;;;4161049;28;20045;-62
2022/02/25 07:43:29;;;;;;;12.32;7.80;;;25.70;70.80;;;;;;4159840;28;20053;-61
2022/02/25 07:45:36;;;;;;;11.23;7.90;;;25.60;70.80;;;;;;4164681;28;20152;-62
2022/02/25 07:47:41;;;;;;;12.65;8.65;;;25.70;71.90;;;;;;4161911;28;20132;-62
2022/02/25 07:49:50;;;;;;;12.30;7.97;;;25.80;71.60;;;;;;4161789;28;20069;-62
2022/02/25 07:51:57;;;;;;;12.07;8.82;;;25.90;71.60;;;;;;4161780;28;20099;-62
2022/02/25 07:54:03;;;;;;;9.98;8.20;;;26.00;71.00;;;;;;4163252;28;20048;-62
2022/02/25 07:56:11;;;;;;;12.52;8.73;;;26.00;71.60;;;;;;4161879;28;20365;-62
2022/02/25 07:58:18;;;;;;;11.65;8.35;;;25.90;70.30;;;;;;4162086;28;20179;-62
2022/02/25 08:00:25;;;;;;;11.18;8.00;;;25.90;72.20;;;;;;4162810;28;20091;-62
2022/02/25 08:02:32;;;;;;;11.15;7.70;;;26.00;70.80;;;;;;4161497;28;20048;-63
2022/02/25 08:04:40;;;;;;;9.77;7.68;;;26.00;71.30;;;;;;4162493;28;20045;-62
2022/02/25 08:07:04;;;;;;;11.95;8.40;;;26.00;71.50;;;;;;4161386;28;20127;-62
2022/02/25 08:09:11;;;;;;;9.82;7.72;;;26.00;71.00;;;;;;4162795;28;20511;-63
2022/02/25 08:11:18;;;;;;;13.80;8.25;;;26.10;70.10;;;;;;4159980;28;20045;-63
2022/02/25 08:13:22;;;;;;;11.60;8.25;;;26.10;70.40;;;;;;4162334;28;20049;-63
2022/02/25 08:15:33;;;;;;;9.40;7.80;;;26.00;70.90;;;;;;4162739;28;20108;-64
2022/02/25 08:17:39;;;;;;;13.85;8.50;;;26.10;70.10;;;;;;4161431;28;20416;-64
2022/02/25 08:19:44;;;;;;;9.05;7.25;;;26.20;70.40;;;;;;4162324;28;20059;-63
2022/02/25 08:21:52;;;;;;;10.38;7.30;;;26.20;70.60;;;;;;4161187;28;20573;-63
2022/02/25 08:23:59;;;;;;;10.73;7.57;;;26.20;70.30;;;;;;4162441;28;20037;-63
2022/02/25 08:26:04;;;;;;;11.73;7.93;;;26.10;70.00;;;;;;4158280;28;20496;-63
2022/02/25 08:28:09;;;;;;;9.02;8.05;;;26.20;71.60;;;;;;4162360;28;20050;-63
2022/02/25 08:30:14;;;;;;;9.98;7.63;;;26.20;71.30;;;;;;4163850;28;20095;-62
2022/02/25 08:32:19;;;;;;;11.27;7.68;;;26.30;70.40;;;;;;4161347;28;20553;-63
2022/02/25 08:34:26;;;;;;;9.32;7.40;;;26.20;70.50;;;;;;4163012;28;20076;-62
2022/02/25 08:36:33;;;;;;;12.15;8.23;;;26.20;70.30;;;;;;4158304;28;20037;-63
2022/02/25 08:38:40;;;;;;;11.18;8.38;;;26.30;70.80;;;;;;4161749;28;20050;-64
2022/02/25 08:40:46;;;;;;;11.38;8.13;;;26.20;70.70;;;;;;4161107;28;20107;-62
2022/02/25 08:42:51;;;;;;;11.05;7.63;;;26.30;70.80;;;;;;4161684;28;20064;-62
2022/02/25 08:44:58;;;;;;;13.32;7.28;;;26.30;71.10;;;;;;4163106;28;20052;-62
2022/02/25 08:47:05;;;;;;;13.02;8.40;;;26.30;70.60;;;;;;4158368;28;20045;-62
2022/02/25 08:49:11;;;;;;;12.25;8.35;;;26.30;71.50;;;;;;4162523;28;20041;-62
2022/02/25 08:51:16;;;;;;;11.00;8.43;;;26.30;71.70;;;;;;4160751;28;20072;-63
2022/02/25 08:53:24;;;;;;;9.68;8.23;;;26.30;71.10;;;;;;4168412;28;20124;-63
2022/02/25 08:55:32;;;;;;;10.07;8.48;;;26.20;70.60;;;;;;4161806;28;20065;-63
2022/02/25 08:57:37;;;;;;;11.52;8.77;;;26.30;70.00;;;;;;4161629;28;20052;-64
2022/02/25 08:59:44;;;;;;;13.15;8.60;;;26.30;70.40;;;;;;4162530;28;20619;-63
2022/02/25 09:01:49;;;;;;;13.00;8.75;;;26.20;71.10;;;;;;4165589;28;21083;-63
2022/02/25 09:03:54;;;;;;;12.20;8.85;;;26.30;70.30;;;;;;4161679;28;20049;-63
2022/02/25 09:06:02;;;;;;;14.23;7.97;;;26.30;69.70;;;;;;4160746;28;20049;-63
2022/02/25 09:08:08;;;;;;;10.45;7.75;;;26.40;69.70;;;;;;4159472;28;20464;-63
2022/02/25 09:10:13;;;;;;;11.10;8.40;;;26.40;69.60;;;;;;4159611;28;20449;-62
2022/02/25 09:12:22;;;;;;;11.27;7.80;;;26.40;69.50;;;;;;4160639;28;20042;-63
2022/02/25 09:14:29;;;;;;;11.57;8.60;;;26.40;70.00;;;;;;4160042;28;20084;-63
2022/02/25 09:16:35;;;;;;;11.05;8.23;;;26.40;70.20;;;;;;4158730;28;20069;-64
2022/02/25 09:18:41;;;;;;;11.65;8.75;;;26.40;69.50;;;;;;4162025;28;20095;-64
2022/02/25 09:20:48;;;;;;;12.00;8.48;;;26.40;70.10;;;;;;4160229;28;20487;-63
2022/02/25 09:22:53;;;;;;;12.88;8.48;;;26.40;70.10;;;;;;4161074;28;20045;-64
2022/02/25 09:25:01;;;;;;;9.98;8.35;;;26.40;70.10;;;;;;4160738;28;20041;-63
2022/02/25 09:27:10;;;;;;;10.75;8.38;;;26.40;70.00;;;;;;4159166;28;20645;-62
2022/02/25 09:29:15;;;;;;;10.60;8.35;;;26.40;70.40;;;;;;4162143;28;20037;-64
2022/02/25 09:31:21;;;;;;;11.15;7.97;;;26.40;69.80;;;;;;4160636;28;20687;-64
2022/02/25 09:33:28;;;;;;;11.23;8.48;;;26.40;68.90;;;;;;4160527;28;20046;-64
2022/02/25 09:35:33;;;;;;;10.95;8.20;;;26.40;69.20;;;;;;4161571;28;20033;-64
2022/02/25 09:37:39;;;;;;;14.38;9.32;;;26.30;70.00;;;;;;4156911;28;20103;-64
2022/02/25 09:39:47;;;;;;;14.20;8.55;;;26.30;69.50;;;;;;4161630;28;20547;-63
2022/02/25 09:41:52;;;;;;;12.65;7.88;;;26.40;69.80;;;;;;4160270;28;20048;-63
2022/02/25 09:43:59;;;;;;;12.35;8.00;;;26.40;69.80;;;;;;4167601;28;20065;-64
2022/02/25 09:46:06;;;;;;;12.10;8.73;;;26.40;68.90;;;;;;4160829;28;20051;-63
2022/02/25 09:48:12;;;;;;;11.00;8.45;;;26.30;69.70;;;;;;4161065;28;20037;-63
2022/02/25 09:50:18;;;;;;;11.65;7.75;;;26.30;70.20;;;;;;4161490;28;20104;-63
2022/02/25 09:52:25;;;;;;;11.82;7.72;;;26.30;70.00;;;;;;4160225;28;20054;-64
2022/02/25 09:54:30;;;;;;;12.38;7.57;;;26.40;70.30;;;;;;4159112;28;20046;-64
2022/02/25 09:56:39;;;;;;;10.90;7.78;;;26.40;69.50;;;;;;4163077;28;20391;-63
2022/02/25 09:58:46;;;;;;;10.95;8.23;;;26.40;69.10;;;;;;4159026;28;20408;-64
2022/02/25 10:00:50;;;;;;;12.02;8.23;;;26.30;69.60;;;;;;4166618;28;20598;-63
2022/02/25 10:03:00;;;;;;;12.70;8.10;;;26.30;70.10;;;;;;4161601;28;20041;-63
2022/02/25 10:05:12;;;;;;;12.52;8.90;;;26.30;70.90;;;;;;4157269;28;20037;-63
2022/02/25 10:07:25;;;;;;;17.55;10.23;;;26.30;70.70;;;;;;4158493;28;20041;-64
2022/02/25 10:09:35;;;;;;;15.55;9.25;;;26.30;70.10;;;;;;4162167;28;20037;-63
2022/02/25 10:12:01;;;;;;;14.07;9.00;;;26.20;69.90;;;;;;4165322;28;20076;-64
2022/02/25 10:14:12;;;;;;;17.75;12.25;;;26.20;70.10;;;;;;4160836;28;20112;-63
2022/02/25 10:16:19;;;;;;;10.68;8.57;;;26.20;70.50;;;;;;4160499;28;20893;-63
2022/02/25 10:18:28;;;;;;;13.90;8.63;;;26.20;70.40;;;;;;4144538;28;20412;-63
2022/02/25 10:20:35;;;;;;;11.23;9.10;;;26.20;70.90;;;;;;4162038;28;20053;-63
2022/02/25 10:22:51;;;;;;;16.63;9.60;;;26.20;70.50;;;;;;4160286;28;20045;-64
2022/02/25 10:25:01;;;;;;;14.52;9.00;;;26.20;71.00;;;;;;4160282;28;20056;-63
2022/02/25 10:27:23;;;;;;;11.23;9.15;;;26.20;71.00;;;;;;4155797;28;20041;-64
2022/02/25 10:29:29;;;;;;;11.77;9.30;;;26.10;71.10;;;;;;4154119;28;20147;-63
2022/02/25 10:31:38;;;;;;;13.65;9.45;;;26.10;70.30;;;;;;4153056;28;20080;-64
2022/02/25 10:33:42;;;;;;;16.15;10.50;;;26.10;70.80;;;;;;4159170;28;20049;-63
2022/02/25 10:35:49;;;;;;;17.13;10.85;;;26.00;70.80;;;;;;4159336;28;20041;-63
2022/02/25 10:38:09;;;;;;;13.93;10.07;;;26.00;71.00;;;;;;4156323;28;20045;-64
2022/02/25 10:40:15;;;;;;;15.55;10.40;;;26.00;71.40;;;;;;4160206;28;20046;-63
2022/02/25 10:42:25;;;;;;;20.33;10.70;;;26.00;71.20;;;;;;4156145;28;20048;-63
2022/02/25 10:44:39;;;;;;;16.23;10.90;;;26.00;71.30;;;;;;4158230;28;20037;-63
2022/02/25 10:46:43;;;;;;;15.60;10.30;;;26.00;71.70;;;;;;4153689;28;20057;-63
2022/02/25 10:48:50;;;;;;;17.52;10.82;;;25.90;72.30;;;;;;4156537;28;20099;-64
2022/02/25 10:51:02;;;;;;;19.23;11.75;;;25.80;72.10;;;;;;4157268;28;20365;-63
2022/02/25 10:53:09;;;;;;;17.17;10.77;;;25.80;72.60;;;;;;4156597;28;20085;-63
2022/02/25 10:55:16;;;;;;;13.82;9.77;;;25.80;72.70;;;;;;4162086;28;20053;-63
2022/02/25 10:57:25;;;;;;;16.08;11.07;;;25.80;72.80;;;;;;4146996;28;20050;-63
2022/02/25 10:59:31;;;;;;;17.52;12.10;;;25.80;72.50;;;;;;4156194;28;20069;-63
2022/02/25 11:01:38;;;;;;;16.80;11.80;;;25.70;73.20;;;;;;4126339;28;20054;-63